Hlavní strana
METAR-TAF:

METAR-TAF

Letiště :

Norrköping, Švédsko

zeměpisná šířka: 58-35N, zeměpisná délka: 016-09E, výška: 34 m

Aktuální stav počasí

Zpráva byla vytvořena před 17 minutami, v 18:20 UTC
Západoseverozápadní vítr 5 kt
Teplota -2°C
Vlhkost vzduchu 46%
Tlak 1014 hPa
Viditelnost 10 km a více

METAR: ESSP 071820Z AUTO 30005KT 9999 NCD M02/M12 Q1014

Čas: 19:37 (18:37 UTC)


TAF: chybějící

Stav a předpovědi počasí z více než 4 000 letišť (zprávy METAR a TAF).

Červené a žluté tečky na mapě představují dostupné meteorologické stanice.

Když kurzor umístíte na tečku, zobrazí se název stanice.

Pak kliknutím zobrazíte stav a předpověď počasí.

Chcete-li změnit mapu, kliknutím na zelené tlačítko se znaménkem +mapu přiblížíte, kliknutím na zelené tlačítko se znaménkem – mapu oddálíte a kliknutím na zelené šipky přejdete na sousední mapy.


METAR-TAF: